Latest Coastal Weather Observations for Yamba

IDN60701

Issued at 10:01 pm EDT Thursday 17 January 2019 (issued every 10 minutes, with the page automatically refreshed every 10 minutes)

About coastal observations | Map of coastal stations | Coastal observations for NSW | Marine services | Other Formats
Station Details ID: 058012 Name: YAMBA PILOT STATION Lat: -29.43 Lon: 153.36 Height: 27.4 m
Data from the previous 72 hours. | See also: Recent months at Yamba
Date/Time
EDT
Wind Sea
Height
m
Swell Vis
km
Cloud Weather Temp
°C
Press
hPa
Rain since
9am
mm
Dir  Spd
kts
Gust
kts
Height
m
Period
s
Dir
17/10:00pm NNE 7 12 - - - - - - - 22.9 1013.5 0.0
17/09:30pm NNE 8 15 - - - - - - - 23.1 1013.2 0.0
17/09:00pm NNE 10 15 - - - - - - - 23.3 1012.7 0.0
17/08:30pm NNE 10 15 - - - - - - - 23.3 1012.6 0.0
17/08:00pm NNE 10 15 - - - - - - - 23.8 1012.5 0.0
17/07:30pm NE 10 14 - - - - - - - 24.2 1012.2 0.0
17/07:00pm NE 9 13 - - - - - - - 25.1 1012.1 0.0
17/06:30pm NE 9 13 - - - - - - - 25.7 1011.9 0.0
17/06:00pm NE 9 14 - - - - - - - 26.2 1011.7 0.0
17/05:30pm NNE 10 17 - - - - - - - 27.2 1011.5 0.0
17/05:00pm NNE 10 15 - - - - - - - 27.6 1011.6 0.0
17/04:30pm NNE 10 16 - - - - - - - 27.8 1011.7 0.0
17/04:00pm NNE 10 16 - - - - - - - 28.8 1012.1 0.0
17/03:30pm NNE 10 15 - - - - - - - 28.3 1012.4 0.0
17/03:00pm NE 9 13 - - - - - - - 28.6 1012.7 0.0
17/02:30pm NE 9 14 - - - - - - - 28.2 1013.2 0.0
17/02:00pm NE 8 14 - - - - - - - 28.6 1013.6 0.0
17/01:30pm NE 9 15 - - - - - - - 27.9 1013.9 0.0
17/01:00pm NE 8 13 - - - - - - - 28.4 1014.3 0.0
17/12:30pm NE 8 12 - - - - - - - 28.4 1014.6 0.0
17/12:00pm NE 8 13 - - - - - - - 27.9 1014.8 0.0
17/11:30am NNE 8 12 - - - - - - - 27.9 1015.0 0.0
17/11:00am NNE 8 13 - - - - - - - 27.8 1015.3 0.0
17/10:30am NNE 8 12 - - - - - - - 27.8 1015.4 0.0
17/10:00am NNE 6 11 - - - - - - - 26.6 1015.4 0.0
17/09:30am NNE 6 9 - - - - - - - 26.5 1015.5 0.0
17/09:00am N 5 8 - - - - - - - 25.7 1015.5 0.0
17/08:30am N 5 9 - - - - - - - 25.6 1015.4 0.0
17/08:00am N 6 11 - - - - - - - 24.8 1015.2 0.0
17/07:30am N 5 7 - - - - - - - 23.2 1015.0 0.0
17/07:00am N 4 6 - - - - - - - 22.3 1014.5 0.0
17/06:30am N 4 6 - - - - - - - 21.4 1014.0 0.0
17/06:00am N 4 5 - - - - - - - 21.4 1013.5 0.0
17/05:30am N 4 6 - - - - - - - 21.4 1013.2 0.0
17/05:00am N 5 6 - - - - - - - 21.5 1013.0 0.0
17/04:30am N 4 6 - - - - - - - 21.7 1012.5 0.0
17/04:00am N 5 7 - - - - - - - 21.9 1012.4 0.0
17/03:30am N 4 7 - - - - - - - 22.1 1012.4 0.0
17/03:00am N 5 8 - - - - - - - 22.1 1012.5 0.0
17/02:30am NNE 5 8 - - - - - - - 22.2 1012.9 0.0
17/02:00am N 5 9 - - - - - - - 22.4 1013.1 0.0
17/01:30am N 5 10 - - - - - - - 22.5 1013.5 0.0
17/01:00am N 5 9 - - - - - - - 22.9 1013.5 0.0
17/12:30am NNE 6 11 - - - - - - - 23.0 1013.6 0.0
17/12:00am NNE 7 11 - - - - - - - 23.1 1013.5 0.0
 
Date/Time
EDT
Wind Sea
Height
m
Swell Vis
km
Cloud Weather Temp
°C
Press
hPa
Rain since
9am
mm
Dir  Spd
kts
Gust
kts
Height
m
Period
s
Dir
16/11:30pm NNE 6 11 - - - - - - - 23.2 1013.5 0.0
16/11:00pm NNE 7 11 - - - - - - - 23.3 1013.4 0.0
16/10:30pm NNE 7 13 - - - - - - - 23.5 1013.5 0.0
16/10:00pm NNE 7 13 - - - - - - - 23.6 1013.3 0.0
16/09:30pm NNE 7 14 - - - - - - - 23.8 1013.1 0.0
16/09:00pm NNE 9 17 - - - - - - - 23.9 1012.6 0.0
16/08:30pm NNE 10 15 - - - - - - - 24.1 1012.2 0.0
16/08:00pm NNE 10 15 - - - - - - - 24.4 1011.7 0.0
16/07:30pm NNE 9 15 - - - - - - - 24.8 1011.5 0.0
16/07:00pm NNE 11 17 - - - - - - - 25.4 1011.1 0.0
16/06:30pm NE 10 14 - - - - - - - 26.5 1010.9 0.0
16/06:00pm NE 10 15 - - - - - - - 27.3 1010.8 0.0
16/05:30pm NE 9 15 - - - - - - - 27.7 1010.5 0.0
16/05:00pm NE 9 14 - - - - - - - 28.4 1010.3 0.0
16/04:30pm NE 10 15 - - - - - - - 28.4 1010.3 0.0
16/04:00pm NE 9 15 - - - - - - - 28.4 1010.7 0.0
16/03:30pm NE 10 14 - - - - - - - 28.5 1010.9 0.0
16/03:00pm NE 9 14 - - - - - - - 28.8 1011.1 0.0
16/02:30pm NE 10 16 - - - - - - - 28.5 1011.5 0.0
16/02:00pm NE 9 15 - - - - - - - 28.7 1011.8 0.0
16/01:30pm NE 9 13 - - - - - - - 29.0 1012.2 0.0
16/01:00pm NE 8 13 - - - - - - - 29.3 1012.6 0.0
16/12:30pm NE 7 11 - - - - - - - 28.7 1013.2 0.0
16/12:00pm NE 7 12 - - - - - - - 28.6 1013.4 0.0
16/11:30am NE 7 11 - - - - - - - 27.7 1013.5 0.0
16/11:00am NE 6 11 - - - - - - - 28.0 1013.8 0.0
16/10:30am NE 6 9 - - - - - - - 27.5 1013.9 0.0
16/10:00am NNE 5 7 - - - - - - - 27.5 1013.9 0.0
16/09:30am N 4 8 - - - - - - - 27.2 1014.1 0.0
16/09:00am NNW 7 9 - - - - - - - 27.0 1014.1 0.0
16/08:30am NNW 6 7 - - - - - - - 25.8 1014.1 0.0
16/08:00am NNW 6 9 - - - - - - - 24.8 1014.1 0.0
16/07:30am N 7 10 - - - - - - - 23.7 1013.6 0.0
16/07:00am NNW 8 12 - - - - - - - 22.7 1013.3 0.0
16/06:30am N 6 9 - - - - - - - 21.9 1013.0 0.0
16/06:00am N 6 8 - - - - - - - 21.7 1012.8 0.0
16/05:30am N 5 6 - - - - - - - 21.5 1012.6 0.0
16/05:00am N 5 7 - - - - - - - 21.8 1012.3 0.0
16/04:30am N 5 8 - - - - - - - 21.8 1012.2 0.0
16/04:00am N 5 7 - - - - - - - 21.9 1012.3 0.0
16/03:30am N 4 7 - - - - - - - 22.1 1012.6 0.0
16/03:00am N 4 6 - - - - - - - 22.3 1012.7 0.0
16/02:30am N 4 6 - - - - - - - 22.6 1013.0 0.0
16/02:00am N 4 5 - - - - - - - 22.7 1013.5 0.0
16/01:30am N 4 6 - - - - - - - 22.9 1013.7 0.0
16/01:00am N 4 6 - - - - - - - 22.9 1014.0 0.0
16/12:30am N 4 7 - - - - - - - 23.2 1014.3 0.0
16/12:00am N 5 7 - - - - - - - 23.4 1014.6 0.0
 
Date/Time
EDT
Wind Sea
Height
m
Swell Vis
km
Cloud Weather Temp
°C
Press
hPa
Rain since
9am
mm
Dir  Spd
kts
Gust
kts
Height
m
Period
s
Dir
15/11:30pm NNE 5 7 - - - - - - - 23.7 1014.8 0.0
15/11:00pm NNE 6 9 - - - - - - - 23.9 1014.9 0.0
15/10:30pm NNE 6 9 - - - - - - - 24.0 1014.9 0.0
15/10:00pm NE 6 10 - - - - - - - 24.2 1015.0 0.0
15/09:30pm NE 7 11 - - - - - - - 24.3 1014.9 0.0
15/09:00pm NE 7 11 - - - - - - - 24.5 1014.7 0.0
15/08:30pm NE 7 11 - - - - - - - 24.6 1014.4 0.0
15/08:00pm NE 8 14 - - - - - - - 24.7 1013.9 0.0
15/07:30pm ENE 8 14 - - - - - - - 25.1 1013.8 0.0
15/07:00pm ENE 8 12 - - - - - - - 25.7 1013.7 0.0
15/06:30pm NE 7 12 - - - - - - - 26.3 1013.5 0.0
15/06:00pm ENE 8 13 - - - - - - - 26.9 1013.1 0.0
15/05:30pm ENE 7 11 - - - - - - - 27.3 1013.0 0.0
15/05:00pm NE 7 14 - - - - - - - 28.0 1013.0 0.0
15/04:30pm ENE 7 13 - - - - - - - 28.3 1013.2 0.0
15/04:00pm ENE 8 13 - - - - - - - 28.7 1013.4 0.0
15/03:30pm ENE 8 13 - - - - - - - 29.1 1013.7 0.0
15/03:00pm ENE 9 14 - - - - - - - 29.4 1014.1 0.0
15/02:30pm ENE 9 14 - - - - - - - 28.6 1014.4 0.0
15/02:00pm ENE 9 13 - - - - - - - 28.5 1014.6 0.0
15/01:30pm ENE 10 13 - - - - - - - 28.0 1014.9 0.0
15/01:00pm ENE 9 14 - - - - - - - 28.3 1015.1 0.0
15/12:30pm ENE 8 12 - - - - - - - 27.9 1015.5 0.0
15/12:00pm ENE 7 11 - - - - - - - 28.8 1015.8 0.0
15/11:30am ENE 7 11 - - - - - - - 27.7 1016.2 0.0
15/11:00am ENE 6 9 - - - - - - - 27.8 1016.5 0.0
15/10:30am ENE 6 9 - - - - - - - 27.1 1016.7 0.0
15/10:00am NNE 5 8 - - - - - - - 27.5 1016.9 0.0
15/09:30am NNE 3 5 - - - - - - - 26.4 1017.0 0.0
15/09:00am NW 4 6 - - - - - - - 26.2 1017.0 0.0
15/08:30am NW 4 5 - - - - - - - 25.2 1017.1 0.0
15/08:00am NW 5 7 - - - - - - - 24.1 1016.9 0.0
15/07:30am W 5 6 - - - - - - - 22.9 1016.7 0.0
15/07:00am WSW 5 6 - - - - - - - 22.0 1016.6 0.0
15/06:30am WSW 5 6 - - - - - - - 21.5 1016.1 0.0
15/06:00am WSW 5 6 - - - - - - - 21.4 1015.8 0.0
15/05:30am WSW 4 6 - - - - - - - 21.5 1015.5 0.0
15/05:00am WSW 4 6 - - - - - - - 21.7 1015.5 0.0
15/04:30am WSW 5 5 - - - - - - - 22.0 1015.3 0.0
15/04:00am WSW 3 4 - - - - - - - 22.1 1015.2 0.0
15/03:30am WSW 4 5 - - - - - - - 22.4 1015.2 0.0
15/03:00am W 4 5 - - - - - - - 22.5 1015.4 0.0
15/02:30am W 5 5 - - - - - - - 22.8 1015.8 0.0
15/02:00am WSW 4 5 - - - - - - - 22.6 1016.1 0.0
15/01:30am WSW 4 5 - - - - - - - 22.4 1016.5 0.0
15/01:00am WSW 4 5 - - - - - - - 22.5 1016.6 0.0
15/12:30am W 4 5 - - - - - - - 22.5 1016.7 0.0
15/12:00am W 4 5 - - - - - - - 22.9 1017.0 0.0
 
Date/Time
EDT
Wind Sea
Height
m
Swell Vis
km
Cloud Weather Temp
°C
Press
hPa
Rain since
9am
mm
Dir  Spd
kts
Gust
kts
Height
m
Period
s
Dir
14/11:30pm NW 3 4 - - - - - - - 23.0 1017.1 0.0
14/11:00pm CALM 0 0 - - - - - - - 23.2 1017.3 0.0
14/10:30pm NNE 4 6 - - - - - - - 23.8 1017.3 0.0

Other Formats:

Comma delimited format used in spreadsheet applications
http://www.bom.gov.au/fwo/IDN60701/IDN60701.94589.axf

JavaScript Object Notation format (JSON) in row-major order
http://www.bom.gov.au/fwo/IDN60701/IDN60701.94589.json